sensor_id;sensor_type;location;lat;lon;timestamp;pressure;altitude;pressure_sealevel;temperature;humidity
35806;BME280;21925;44.608;11.580;2022-10-16T00:01:46;101983.41;;;18.70;100.00
35806;BME280;21925;44.608;11.580;2022-10-16T00:04:13;102025.47;;;18.95;100.00
35806;BME280;21925;44.608;11.580;2022-10-16T00:06:39;102017.28;;;18.79;100.00
35806;BME280;21925;44.608;11.580;2022-10-16T00:09:06;102027.25;;;19.06;100.00
35806;BME280;21925;44.608;11.580;2022-10-16T00:11:33;102031.03;;;19.17;100.00
35806;BME280;21925;44.608;11.580;2022-10-16T00:14:04;102032.66;;;19.18;100.00
35806;BME280;21925;44.608;11.580;2022-10-16T00:16:31;102034.34;;;19.26;100.00
35806;BME280;21925;44.608;11.580;2022-10-16T00:18:57;102002.59;;;19.05;100.00
35806;BME280;21925;44.608;11.580;2022-10-16T00:21:27;102000.25;;;19.07;100.00
35806;BME280;21925;44.608;11.580;2022-10-16T00:23:57;102041.84;;;19.22;100.00
35806;BME280;21925;44.608;11.580;2022-10-16T00:26:25;102030.59;;;19.15;100.00
35806;BME280;21925;44.608;11.580;2022-10-16T00:28:52;102023.88;;;19.16;100.00
35806;BME280;21925;44.608;11.580;2022-10-16T00:31:20;102027.81;;;19.15;100.00
35806;BME280;21925;44.608;11.580;2022-10-16T00:33:46;102029.25;;;18.83;100.00
35806;BME280;21925;44.608;11.580;2022-10-16T00:36:14;102046.19;;;18.97;100.00
35806;BME280;21925;44.608;11.580;2022-10-16T00:38:41;102041.41;;;18.98;100.00
35806;BME280;21925;44.608;11.580;2022-10-16T00:41:10;102054.19;;;19.02;100.00
35806;BME280;21925;44.608;11.580;2022-10-16T00:51:30;102032.78;;;18.80;100.00
35806;BME280;21925;44.608;11.580;2022-10-16T00:53:57;102027.41;;;18.68;100.00
35806;BME280;21925;44.608;11.580;2022-10-16T00:56:23;102026.13;;;18.62;100.00
35806;BME280;21925;44.608;11.580;2022-10-16T00:58:49;102004.13;;;18.54;100.00
35806;BME280;21925;44.608;11.580;2022-10-16T01:01:15;101986.56;;;18.46;100.00
35806;BME280;21925;44.608;11.580;2022-10-16T01:03:41;102029.47;;;18.71;100.00
35806;BME280;21925;44.608;11.580;2022-10-16T01:09:40;102035.13;;;18.78;100.00
35806;BME280;21925;44.608;11.580;2022-10-16T01:11:53;102039.09;;;18.77;100.00
35806;BME280;21925;44.608;11.580;2022-10-16T01:14:42;102026.50;;;18.61;100.00
35806;BME280;21925;44.608;11.580;2022-10-16T01:20:41;102034.06;;;18.41;100.00
35806;BME280;21925;44.608;11.580;2022-10-16T01:23:17;102047.06;;;18.56;100.00
35806;BME280;21925;44.608;11.580;2022-10-16T01:25:55;102041.56;;;18.60;100.00
35806;BME280;21925;44.608;11.580;2022-10-16T01:28:49;102038.16;;;18.47;100.00
35806;BME280;21925;44.608;11.580;2022-10-16T01:31:19;102046.56;;;18.51;100.00
35806;BME280;21925;44.608;11.580;2022-10-16T01:34:10;102028.09;;;18.40;100.00
35806;BME280;21925;44.608;11.580;2022-10-16T01:36:42;102036.56;;;18.46;100.00
35806;BME280;21925;44.608;11.580;2022-10-16T01:39:11;102039.34;;;18.28;100.00
35806;BME280;21925;44.608;11.580;2022-10-16T01:41:41;102050.47;;;18.28;100.00
35806;BME280;21925;44.608;11.580;2022-10-16T01:44:11;102057.25;;;18.11;100.00
35806;BME280;21925;44.608;11.580;2022-10-16T01:46:43;102044.63;;;18.33;100.00
35806;BME280;21925;44.608;11.580;2022-10-16T01:49:11;102056.28;;;18.41;100.00
35806;BME280;21925;44.608;11.580;2022-10-16T01:51:39;102042.69;;;18.37;100.00
35806;BME280;21925;44.608;11.580;2022-10-16T01:54:07;102036.78;;;18.19;100.00
35806;BME280;21925;44.608;11.580;2022-10-16T01:56:34;102047.16;;;18.22;100.00
35806;BME280;21925;44.608;11.580;2022-10-16T01:59:09;102055.13;;;18.05;100.00
35806;BME280;21925;44.608;11.580;2022-10-16T02:01:39;102056.16;;;18.35;100.00
35806;BME280;21925;44.608;11.580;2022-10-16T02:04:15;102057.38;;;18.18;100.00
35806;BME280;21925;44.608;11.580;2022-10-16T02:06:43;102039.63;;;18.04;100.00
35806;BME280;21925;44.608;11.580;2022-10-16T02:09:08;102056.75;;;18.25;100.00
35806;BME280;21925;44.608;11.580;2022-10-16T02:11:34;102057.31;;;18.34;100.00
35806;BME280;21925;44.608;11.580;2022-10-16T02:14:07;102043.59;;;18.41;100.00
35806;BME280;21925;44.608;11.580;2022-10-16T02:16:35;102063.66;;;18.53;100.00
35806;BME280;21925;44.608;11.580;2022-10-16T02:19:01;102060.38;;;18.47;100.00
35806;BME280;21925;44.608;11.580;2022-10-16T02:21:41;102077.19;;;18.54;100.00
35806;BME280;21925;44.608;11.580;2022-10-16T02:24:20;102065.13;;;18.47;100.00
35806;BME280;21925;44.608;11.580;2022-10-16T02:26:57;102024.06;;;18.18;100.00
35806;BME280;21925;44.608;11.580;2022-10-16T02:29:26;102071.25;;;18.56;100.00
35806;BME280;21925;44.608;11.580;2022-10-16T02:31:56;102013.69;;;18.15;100.00
35806;BME280;21925;44.608;11.580;2022-10-16T02:34:25;101991.88;;;17.95;100.00
35806;BME280;21925;44.608;11.580;2022-10-16T02:36:53;102043.44;;;18.34;100.00
35806;BME280;21925;44.608;11.580;2022-10-16T02:39:20;102049.22;;;18.44;100.00
35806;BME280;21925;44.608;11.580;2022-10-16T02:41:47;102059.63;;;18.50;100.00
35806;BME280;21925;44.608;11.580;2022-10-16T02:44:13;102059.81;;;18.39;100.00
35806;BME280;21925;44.608;11.580;2022-10-16T02:46:39;102069.63;;;18.33;100.00
35806;BME280;21925;44.608;11.580;2022-10-16T02:49:04;102065.94;;;18.29;100.00
35806;BME280;21925;44.608;11.580;2022-10-16T02:51:30;102071.38;;;18.22;100.00
35806;BME280;21925;44.608;11.580;2022-10-16T02:53:56;102051.63;;;18.27;100.00
35806;BME280;21925;44.608;11.580;2022-10-16T02:56:22;102020.06;;;18.16;100.00
35806;BME280;21925;44.608;11.580;2022-10-16T02:58:48;102084.63;;;18.50;100.00
35806;BME280;21925;44.608;11.580;2022-10-16T03:01:14;102089.47;;;18.53;100.00
35806;BME280;21925;44.608;11.580;2022-10-16T03:03:42;102012.53;;;18.16;100.00
35806;BME280;21925;44.608;11.580;2022-10-16T03:06:08;102078.66;;;18.48;100.00
35806;BME280;21925;44.608;11.580;2022-10-16T03:08:34;102085.06;;;18.52;100.00
35806;BME280;21925;44.608;11.580;2022-10-16T03:11:00;102064.50;;;18.57;100.00
35806;BME280;21925;44.608;11.580;2022-10-16T03:13:27;102062.25;;;18.62;100.00
35806;BME280;21925;44.608;11.580;2022-10-16T03:15:53;102077.50;;;18.49;100.00
35806;BME280;21925;44.608;11.580;2022-10-16T03:18:19;102082.81;;;18.39;100.00
35806;BME280;21925;44.608;11.580;2022-10-16T03:20:44;102073.88;;;18.49;100.00
35806;BME280;21925;44.608;11.580;2022-10-16T03:23:10;102063.09;;;18.44;100.00
35806;BME280;21925;44.608;11.580;2022-10-16T03:25:37;102046.66;;;18.36;100.00
35806;BME280;21925;44.608;11.580;2022-10-16T03:28:03;102074.09;;;18.59;100.00
35806;BME280;21925;44.608;11.580;2022-10-16T03:30:29;102049.13;;;18.41;100.00
35806;BME280;21925;44.608;11.580;2022-10-16T03:32:55;102053.31;;;18.31;100.00
35806;BME280;21925;44.608;11.580;2022-10-16T03:35:21;102088.28;;;18.54;100.00
35806;BME280;21925;44.608;11.580;2022-10-16T03:37:47;102075.50;;;18.50;100.00
35806;BME280;21925;44.608;11.580;2022-10-16T03:40:13;102086.28;;;18.55;100.00
35806;BME280;21925;44.608;11.580;2022-10-16T03:42:39;102093.72;;;18.47;100.00
35806;BME280;21925;44.608;11.580;2022-10-16T03:45:05;102076.47;;;18.39;100.00
35806;BME280;21925;44.608;11.580;2022-10-16T03:47:31;102039.63;;;18.04;100.00
35806;BME280;21925;44.608;11.580;2022-10-16T03:49:59;102088.09;;;18.25;100.00
35806;BME280;21925;44.608;11.580;2022-10-16T03:52:25;102101.31;;;18.32;100.00
35806;BME280;21925;44.608;11.580;2022-10-16T03:54:51;102069.06;;;18.08;100.00
35806;BME280;21925;44.608;11.580;2022-10-16T03:57:17;102062.72;;;18.08;100.00
35806;BME280;21925;44.608;11.580;2022-10-16T03:59:43;102096.19;;;18.34;100.00
35806;BME280;21925;44.608;11.580;2022-10-16T04:02:09;102098.97;;;18.34;100.00
35806;BME280;21925;44.608;11.580;2022-10-16T04:04:35;102107.53;;;18.25;100.00
35806;BME280;21925;44.608;11.580;2022-10-16T04:07:01;102097.78;;;18.16;100.00
35806;BME280;21925;44.608;11.580;2022-10-16T04:09:27;102106.84;;;18.13;100.00
35806;BME280;21925;44.608;11.580;2022-10-16T04:11:53;102073.53;;;17.94;100.00
35806;BME280;21925;44.608;11.580;2022-10-16T04:14:19;102064.97;;;17.83;100.00
35806;BME280;21925;44.608;11.580;2022-10-16T04:16:45;102101.19;;;17.90;100.00
35806;BME280;21925;44.608;11.580;2022-10-16T04:19:11;102093.81;;;17.79;100.00
35806;BME280;21925;44.608;11.580;2022-10-16T04:21:36;102112.06;;;17.80;100.00
35806;BME280;21925;44.608;11.580;2022-10-16T04:24:03;102095.47;;;17.64;100.00
35806;BME280;21925;44.608;11.580;2022-10-16T04:26:29;102085.13;;;17.46;100.00
35806;BME280;21925;44.608;11.580;2022-10-16T04:28:55;102099.28;;;17.41;100.00
35806;BME280;21925;44.608;11.580;2022-10-16T04:31:21;102102.66;;;17.50;100.00
35806;BME280;21925;44.608;11.580;2022-10-16T04:33:47;102115.22;;;17.44;100.00
35806;BME280;21925;44.608;11.580;2022-10-16T04:36:13;102110.53;;;17.48;100.00
35806;BME280;21925;44.608;11.580;2022-10-16T04:38:39;102100.00;;;17.38;100.00
35806;BME280;21925;44.608;11.580;2022-10-16T04:41:06;102114.75;;;17.42;100.00
35806;BME280;21925;44.608;11.580;2022-10-16T04:43:35;102093.38;;;17.12;100.00
35806;BME280;21925;44.608;11.580;2022-10-16T04:46:00;102118.31;;;17.27;100.00
35806;BME280;21925;44.608;11.580;2022-10-16T04:48:27;102123.53;;;17.29;100.00
35806;BME280;21925;44.608;11.580;2022-10-16T04:50:53;102122.50;;;17.21;100.00
35806;BME280;21925;44.608;11.580;2022-10-16T04:53:18;102115.91;;;17.10;100.00
35806;BME280;21925;44.608;11.580;2022-10-16T04:55:44;102105.44;;;16.88;100.00
35806;BME280;21925;44.608;11.580;2022-10-16T04:58:10;102118.56;;;16.91;100.00
35806;BME280;21925;44.608;11.580;2022-10-16T05:00:37;102112.16;;;16.87;100.00
35806;BME280;21925;44.608;11.580;2022-10-16T05:03:04;102117.47;;;16.80;100.00
35806;BME280;21925;44.608;11.580;2022-10-16T05:05:34;102126.84;;;16.76;100.00
35806;BME280;21925;44.608;11.580;2022-10-16T05:07:59;102118.22;;;16.77;100.00
35806;BME280;21925;44.608;11.580;2022-10-16T05:10:25;102129.63;;;16.76;100.00
35806;BME280;21925;44.608;11.580;2022-10-16T05:12:51;102122.47;;;16.60;100.00
35806;BME280;21925;44.608;11.580;2022-10-16T05:15:17;102121.41;;;16.64;100.00
35806;BME280;21925;44.608;11.580;2022-10-16T05:17:44;102115.22;;;16.55;100.00
35806;BME280;21925;44.608;11.580;2022-10-16T05:20:10;102129.25;;;16.47;100.00
35806;BME280;21925;44.608;11.580;2022-10-16T05:22:36;102123.59;;;16.43;100.00
35806;BME280;21925;44.608;11.580;2022-10-16T05:25:02;102108.19;;;16.30;100.00
35806;BME280;21925;44.608;11.580;2022-10-16T05:27:28;102130.78;;;16.32;100.00
35806;BME280;21925;44.608;11.580;2022-10-16T05:29:54;102124.56;;;16.23;100.00
35806;BME280;21925;44.608;11.580;2022-10-16T05:32:20;102130.00;;;16.20;100.00
35806;BME280;21925;44.608;11.580;2022-10-16T05:34:45;102142.47;;;16.14;100.00
35806;BME280;21925;44.608;11.580;2022-10-16T05:37:11;102113.88;;;16.10;100.00
35806;BME280;21925;44.608;11.580;2022-10-16T05:39:38;102155.47;;;16.25;100.00
35806;BME280;21925;44.608;11.580;2022-10-16T05:42:04;102115.19;;;16.00;100.00
35806;BME280;21925;44.608;11.580;2022-10-16T05:44:30;102115.28;;;16.04;100.00
35806;BME280;21925;44.608;11.580;2022-10-16T05:46:56;102159.50;;;16.28;100.00
35806;BME280;21925;44.608;11.580;2022-10-16T05:49:22;102147.41;;;16.20;100.00
35806;BME280;21925;44.608;11.580;2022-10-16T05:51:48;102157.22;;;16.18;100.00
35806;BME280;21925;44.608;11.580;2022-10-16T05:54:14;102119.69;;;16.05;100.00
35806;BME280;21925;44.608;11.580;2022-10-16T05:56:41;102152.34;;;16.39;100.00
35806;BME280;21925;44.608;11.580;2022-10-16T05:59:08;102163.94;;;16.44;100.00
35806;BME280;21925;44.608;11.580;2022-10-16T06:01:34;102146.94;;;16.30;100.00
35806;BME280;21925;44.608;11.580;2022-10-16T06:04:01;102176.34;;;16.35;100.00
35806;BME280;21925;44.608;11.580;2022-10-16T06:06:28;102177.59;;;16.37;100.00
35806;BME280;21925;44.608;11.580;2022-10-16T06:08:56;102184.28;;;16.36;100.00
35806;BME280;21925;44.608;11.580;2022-10-16T06:11:29;102170.31;;;16.45;100.00
35806;BME280;21925;44.608;11.580;2022-10-16T06:13:59;102166.38;;;16.46;100.00
35806;BME280;21925;44.608;11.580;2022-10-16T06:16:28;102189.69;;;16.45;100.00
35806;BME280;21925;44.608;11.580;2022-10-16T06:18:55;102197.28;;;16.48;100.00
35806;BME280;21925;44.608;11.580;2022-10-16T06:21:27;102199.81;;;16.53;100.00
35806;BME280;21925;44.608;11.580;2022-10-16T06:23:55;102204.66;;;16.56;100.00
35806;BME280;21925;44.608;11.580;2022-10-16T06:26:25;102202.97;;;16.67;100.00
35806;BME280;21925;44.608;11.580;2022-10-16T06:28:54;102213.25;;;16.66;100.00
35806;BME280;21925;44.608;11.580;2022-10-16T06:31:21;102191.97;;;16.55;100.00
35806;BME280;21925;44.608;11.580;2022-10-16T06:33:51;102219.34;;;16.72;100.00
35806;BME280;21925;44.608;11.580;2022-10-16T06:36:17;102215.06;;;16.74;100.00
35806;BME280;21925;44.608;11.580;2022-10-16T06:38:44;102228.75;;;16.82;100.00
35806;BME280;21925;44.608;11.580;2022-10-16T06:41:13;102229.69;;;16.86;100.00
35806;BME280;21925;44.608;11.580;2022-10-16T06:43:40;102232.38;;;16.98;100.00
35806;BME280;21925;44.608;11.580;2022-10-16T06:46:10;102227.97;;;16.97;100.00
35806;BME280;21925;44.608;11.580;2022-10-16T06:48:37;102233.94;;;17.11;100.00
35806;BME280;21925;44.608;11.580;2022-10-16T06:51:13;102252.47;;;17.23;100.00
35806;BME280;21925;44.608;11.580;2022-10-16T06:53:45;102257.91;;;17.19;100.00
35806;BME280;21925;44.608;11.580;2022-10-16T06:56:20;102248.84;;;17.34;100.00
35806;BME280;21925;44.608;11.580;2022-10-16T06:58:48;102254.47;;;17.53;100.00
35806;BME280;21925;44.608;11.580;2022-10-16T07:01:18;102225.31;;;17.44;100.00
35806;BME280;21925;44.608;11.580;2022-10-16T07:03:46;102267.09;;;17.81;100.00
35806;BME280;21925;44.608;11.580;2022-10-16T07:06:15;102263.69;;;17.88;100.00
35806;BME280;21925;44.608;11.580;2022-10-16T07:08:45;102266.78;;;18.02;100.00
35806;BME280;21925;44.608;11.580;2022-10-16T07:11:17;102281.81;;;18.16;100.00
35806;BME280;21925;44.608;11.580;2022-10-16T07:13:48;102274.06;;;18.22;100.00
35806;BME280;21925;44.608;11.580;2022-10-16T07:16:21;102276.69;;;18.34;100.00
35806;BME280;21925;44.608;11.580;2022-10-16T07:18:51;102278.13;;;18.43;100.00
35806;BME280;21925;44.608;11.580;2022-10-16T07:21:26;102286.38;;;18.58;100.00
35806;BME280;21925;44.608;11.580;2022-10-16T07:23:56;102286.41;;;18.77;100.00
35806;BME280;21925;44.608;11.580;2022-10-16T07:26:24;102263.00;;;18.78;100.00
35806;BME280;21925;44.608;11.580;2022-10-16T07:28:51;102291.13;;;19.11;100.00
35806;BME280;21925;44.608;11.580;2022-10-16T07:31:22;102294.56;;;19.23;100.00
35806;BME280;21925;44.608;11.580;2022-10-16T07:33:50;102296.72;;;19.33;100.00
35806;BME280;21925;44.608;11.580;2022-10-16T07:36:17;102256.16;;;19.10;100.00
35806;BME280;21925;44.608;11.580;2022-10-16T07:38:45;102289.25;;;19.37;100.00
35806;BME280;21925;44.608;11.580;2022-10-16T07:41:13;102283.94;;;19.51;100.00
35806;BME280;21925;44.608;11.580;2022-10-16T07:43:40;102305.91;;;19.79;100.00
35806;BME280;21925;44.608;11.580;2022-10-16T07:46:06;102301.47;;;19.97;100.00
35806;BME280;21925;44.608;11.580;2022-10-16T07:48:33;102306.63;;;20.20;100.00
35806;BME280;21925;44.608;11.580;2022-10-16T07:51:03;102307.06;;;20.22;100.00
35806;BME280;21925;44.608;11.580;2022-10-16T07:53:31;102309.78;;;20.19;100.00
35806;BME280;21925;44.608;11.580;2022-10-16T07:56:02;102323.44;;;20.53;100.00
35806;BME280;21925;44.608;11.580;2022-10-16T07:58:29;102294.09;;;20.59;100.00
35806;BME280;21925;44.608;11.580;2022-10-16T08:00:56;102317.91;;;20.83;100.00
35806;BME280;21925;44.608;11.580;2022-10-16T08:03:24;102281.31;;;20.58;100.00
35806;BME280;21925;44.608;11.580;2022-10-16T08:05:52;102325.16;;;20.87;100.00
35806;BME280;21925;44.608;11.580;2022-10-16T08:08:19;102322.22;;;21.06;100.00
35806;BME280;21925;44.608;11.580;2022-10-16T08:10:45;102306.81;;;21.19;99.60
35806;BME280;21925;44.608;11.580;2022-10-16T08:13:11;102322.59;;;21.41;95.71
35806;BME280;21925;44.608;11.580;2022-10-16T08:15:41;102331.69;;;21.67;95.73
35806;BME280;21925;44.608;11.580;2022-10-16T08:18:09;102323.69;;;21.66;94.67
35806;BME280;21925;44.608;11.580;2022-10-16T08:20:36;102330.03;;;21.59;94.39
35806;BME280;21925;44.608;11.580;2022-10-16T08:23:03;102329.53;;;21.90;91.51
35806;BME280;21925;44.608;11.580;2022-10-16T08:25:30;102342.16;;;21.77;91.75
35806;BME280;21925;44.608;11.580;2022-10-16T08:27:59;102337.78;;;21.76;91.60
35806;BME280;21925;44.608;11.580;2022-10-16T08:30:28;102336.81;;;22.01;91.19
35806;BME280;21925;44.608;11.580;2022-10-16T08:32:54;102341.19;;;21.99;90.03
35806;BME280;21925;44.608;11.580;2022-10-16T08:35:29;102333.69;;;22.13;90.03
35806;BME280;21925;44.608;11.580;2022-10-16T08:37:56;102344.13;;;22.20;89.39
35806;BME280;21925;44.608;11.580;2022-10-16T08:40:29;102338.88;;;22.11;89.12
35806;BME280;21925;44.608;11.580;2022-10-16T08:43:21;102353.00;;;22.29;88.67
35806;BME280;21925;44.608;11.580;2022-10-16T08:51:08;102353.16;;;22.46;86.31
35806;BME280;21925;44.608;11.580;2022-10-16T08:53:45;102356.44;;;22.62;86.07
35806;BME280;21925;44.608;11.580;2022-10-16T08:56:14;102343.38;;;22.83;84.43
35806;BME280;21925;44.608;11.580;2022-10-16T08:58:40;102357.13;;;23.06;83.75
35806;BME280;21925;44.608;11.580;2022-10-16T09:01:12;102354.28;;;22.99;81.61
35806;BME280;21925;44.608;11.580;2022-10-16T09:09:35;102354.06;;;23.38;79.14
35806;BME280;21925;44.608;11.580;2022-10-16T09:12:10;102344.13;;;23.58;78.15
35806;BME280;21925;44.608;11.580;2022-10-16T09:20:19;102327.38;;;23.83;75.49
35806;BME280;21925;44.608;11.580;2022-10-16T09:25:35;102319.78;;;23.97;73.92
35806;BME280;21925;44.608;11.580;2022-10-16T09:28:03;102341.00;;;24.29;74.60
35806;BME280;21925;44.608;11.580;2022-10-16T09:30:29;102332.97;;;24.66;71.94
35806;BME280;21925;44.608;11.580;2022-10-16T09:32:57;102339.81;;;24.51;70.75
35806;BME280;21925;44.608;11.580;2022-10-16T09:35:49;102348.88;;;25.00;71.78
35806;BME280;21925;44.608;11.580;2022-10-16T09:38:31;102320.00;;;25.07;72.21
35806;BME280;21925;44.608;11.580;2022-10-16T09:41:00;102337.63;;;25.04;68.89
35806;BME280;21925;44.608;11.580;2022-10-16T09:46:06;102338.09;;;24.82;68.52
35806;BME280;21925;44.608;11.580;2022-10-16T09:48:48;102338.63;;;25.52;72.27
35806;BME280;21925;44.608;11.580;2022-10-16T09:51:25;102331.56;;;26.35;70.75
35806;BME280;21925;44.608;11.580;2022-10-16T09:54:01;102332.91;;;26.20;67.63
35806;BME280;21925;44.608;11.580;2022-10-16T09:56:33;102334.63;;;26.10;67.26
35806;BME280;21925;44.608;11.580;2022-10-16T09:59:28;102329.50;;;25.34;67.63
35806;BME280;21925;44.608;11.580;2022-10-16T10:02:00;102330.00;;;25.86;68.62
35806;BME280;21925;44.608;11.580;2022-10-16T10:04:40;102312.97;;;26.04;67.61
35806;BME280;21925;44.608;11.580;2022-10-16T10:07:18;102329.25;;;26.66;70.64
35806;BME280;21925;44.608;11.580;2022-10-16T10:09:48;102327.25;;;27.34;68.79
35806;BME280;21925;44.608;11.580;2022-10-16T10:12:25;102312.50;;;27.79;66.13
35806;BME280;21925;44.608;11.580;2022-10-16T10:15:07;102260.91;;;27.55;64.58
35806;BME280;21925;44.608;11.580;2022-10-16T10:17:51;102301.09;;;27.33;63.09
35806;BME280;21925;44.608;11.580;2022-10-16T10:20:27;102321.53;;;27.41;63.37
35806;BME280;21925;44.608;11.580;2022-10-16T10:22:55;102304.19;;;27.42;64.95
35806;BME280;21925;44.608;11.580;2022-10-16T10:33:31;102317.53;;;27.08;64.29
35806;BME280;21925;44.608;11.580;2022-10-16T10:44:21;102318.47;;;27.28;63.04
35806;BME280;21925;44.608;11.580;2022-10-16T10:56:24;102318.03;;;27.86;61.87
35806;BME280;21925;44.608;11.580;2022-10-16T11:01:18;102218.38;;;27.46;60.48
35806;BME280;21925;44.608;11.580;2022-10-16T11:04:14;102313.56;;;28.11;62.11
35806;BME280;21925;44.608;11.580;2022-10-16T11:07:23;102313.81;;;27.97;63.31
35806;BME280;21925;44.608;11.580;2022-10-16T11:09:44;102179.84;;;27.40;61.08
35806;BME280;21925;44.608;11.580;2022-10-16T11:12:29;102247.91;;;27.65;60.04
35806;BME280;21925;44.608;11.580;2022-10-16T11:15:28;102307.63;;;28.06;59.91
35806;BME280;21925;44.608;11.580;2022-10-16T11:18:34;102275.66;;;27.10;60.72
35806;BME280;21925;44.608;11.580;2022-10-16T11:21:04;102283.56;;;27.75;65.27
35806;BME280;21925;44.608;11.580;2022-10-16T11:23:44;102234.38;;;27.53;60.31
35806;BME280;21925;44.608;11.580;2022-10-16T11:26:24;102262.91;;;27.55;60.58
35806;BME280;21925;44.608;11.580;2022-10-16T11:28:54;102261.81;;;27.49;60.37
35806;BME280;21925;44.608;11.580;2022-10-16T11:34:01;102247.19;;;27.31;60.26
35806;BME280;21925;44.608;11.580;2022-10-16T11:36:42;102293.78;;;27.92;60.42
35806;BME280;21925;44.608;11.580;2022-10-16T11:39:20;102292.75;;;28.05;59.00
35806;BME280;21925;44.608;11.580;2022-10-16T11:42:13;102286.59;;;28.33;62.20
35806;BME280;21925;44.608;11.580;2022-10-16T11:44:50;102288.44;;;28.62;57.58
35806;BME280;21925;44.608;11.580;2022-10-16T11:47:45;102285.25;;;28.83;59.03
35806;BME280;21925;44.608;11.580;2022-10-16T11:50:42;102214.16;;;29.04;60.34
35806;BME280;21925;44.608;11.580;2022-10-16T11:55:55;102220.28;;;29.54;58.28
35806;BME280;21925;44.608;11.580;2022-10-16T12:06:40;102265.69;;;29.63;53.97
35806;BME280;21925;44.608;11.580;2022-10-16T12:09:36;102205.03;;;29.32;57.15
35806;BME280;21925;44.608;11.580;2022-10-16T12:12:03;102286.34;;;29.60;56.53
35806;BME280;21925;44.608;11.580;2022-10-16T12:14:34;102280.00;;;29.56;55.81
35806;BME280;21925;44.608;11.580;2022-10-16T12:22:53;102235.81;;;29.62;56.01
35806;BME280;21925;44.608;11.580;2022-10-16T12:25:26;102220.88;;;29.61;54.00
35806;BME280;21925;44.608;11.580;2022-10-16T12:28:02;102117.16;;;28.95;55.03
35806;BME280;21925;44.608;11.580;2022-10-16T12:30:35;102278.41;;;29.55;55.71
35806;BME280;21925;44.608;11.580;2022-10-16T12:33:05;102277.22;;;29.17;54.11
35806;BME280;21925;44.608;11.580;2022-10-16T12:35:35;102226.53;;;29.10;55.99
35806;BME280;21925;44.608;11.580;2022-10-16T12:38:12;102271.66;;;29.65;56.01
35806;BME280;21925;44.608;11.580;2022-10-16T12:40:42;102274.50;;;29.49;56.99
35806;BME280;21925;44.608;11.580;2022-10-16T12:43:41;102175.63;;;28.59;52.54
35806;BME280;21925;44.608;11.580;2022-10-16T12:48:41;102275.69;;;29.12;55.58
35806;BME280;21925;44.608;11.580;2022-10-16T12:51:19;102153.53;;;28.73;55.43
35806;BME280;21925;44.608;11.580;2022-10-16T12:53:58;102270.50;;;29.46;54.18
35806;BME280;21925;44.608;11.580;2022-10-16T12:59:12;102267.53;;;29.34;54.51
35806;BME280;21925;44.608;11.580;2022-10-16T13:01:56;102266.31;;;29.35;55.66
35806;BME280;21925;44.608;11.580;2022-10-16T13:10:19;102280.78;;;29.21;53.73
35806;BME280;21925;44.608;11.580;2022-10-16T13:18:29;102273.59;;;28.81;52.83
35806;BME280;21925;44.608;11.580;2022-10-16T13:26:35;102254.03;;;28.90;52.38
35806;BME280;21925;44.608;11.580;2022-10-16T13:29:04;102272.47;;;29.14;52.35
35806;BME280;21925;44.608;11.580;2022-10-16T13:31:31;102244.81;;;28.67;52.60
35806;BME280;21925;44.608;11.580;2022-10-16T13:33:59;102235.63;;;28.63;53.06
35806;BME280;21925;44.608;11.580;2022-10-16T13:36:34;102274.13;;;28.73;54.32
35806;BME280;21925;44.608;11.580;2022-10-16T13:41:44;102273.06;;;28.25;52.50
35806;BME280;21925;44.608;11.580;2022-10-16T13:44:17;102280.63;;;28.50;53.03
35806;BME280;21925;44.608;11.580;2022-10-16T13:46:45;102289.31;;;28.59;53.44
35806;BME280;21925;44.608;11.580;2022-10-16T13:49:14;102280.63;;;28.50;54.67
35806;BME280;21925;44.608;11.580;2022-10-16T13:51:41;102289.00;;;28.34;54.60
35806;BME280;21925;44.608;11.580;2022-10-16T13:54:10;102284.34;;;28.25;54.05
35806;BME280;21925;44.608;11.580;2022-10-16T13:56:39;102289.47;;;28.07;53.75
35806;BME280;21925;44.608;11.580;2022-10-16T13:59:23;102293.25;;;28.20;54.24
35806;BME280;21925;44.608;11.580;2022-10-16T14:01:50;102294.34;;;28.06;53.13
35806;BME280;21925;44.608;11.580;2022-10-16T14:04:18;102287.09;;;28.05;53.58
35806;BME280;21925;44.608;11.580;2022-10-16T14:06:46;102294.16;;;27.94;52.39
35806;BME280;21925;44.608;11.580;2022-10-16T14:09:31;102284.81;;;27.97;52.94
35806;BME280;21925;44.608;11.580;2022-10-16T14:12:02;102296.97;;;28.17;53.31
35806;BME280;21925;44.608;11.580;2022-10-16T14:14:40;102297.31;;;28.22;53.34
35806;BME280;21925;44.608;11.580;2022-10-16T14:19:53;102285.56;;;27.78;53.61
35806;BME280;21925;44.608;11.580;2022-10-16T14:24:55;102289.34;;;28.14;54.96
35806;BME280;21925;44.608;11.580;2022-10-16T14:27:32;102290.38;;;28.00;54.46
35806;BME280;21925;44.608;11.580;2022-10-16T14:32:34;102265.78;;;27.51;53.78
35806;BME280;21925;44.608;11.580;2022-10-16T14:35:00;102260.41;;;27.60;54.30
35806;BME280;21925;44.608;11.580;2022-10-16T14:37:29;102273.69;;;27.63;55.07
35806;BME280;21925;44.608;11.580;2022-10-16T14:39:56;102294.06;;;27.74;53.73
35806;BME280;21925;44.608;11.580;2022-10-16T14:42:24;102260.38;;;27.64;53.28
35806;BME280;21925;44.608;11.580;2022-10-16T14:44:52;102290.00;;;27.75;54.30
35806;BME280;21925;44.608;11.580;2022-10-16T14:47:21;102261.50;;;27.43;53.46